createdAt,value
2016-07-31T00:00:05.384Z,9.73
2016-07-31T00:00:14.118Z,9.73
2016-07-31T00:00:22.834Z,9.76
2016-07-31T00:00:31.547Z,9.75
2016-07-31T00:00:40.249Z,9.7
2016-07-31T00:00:48.957Z,9.76
2016-07-31T00:00:57.681Z,9.83
2016-07-31T00:01:06.441Z,9.78
2016-07-31T00:01:15.159Z,9.75
2016-07-31T00:01:23.869Z,9.83
2016-07-31T00:01:32.603Z,9.81
2016-07-31T00:01:41.279Z,9.73
2016-07-31T00:01:49.980Z,9.86
2016-07-31T00:01:58.709Z,9.71
2016-07-31T00:02:07.443Z,9.86
2016-07-31T00:02:16.161Z,9.88
2016-07-31T00:02:24.873Z,9.78
2016-07-31T00:02:33.627Z,9.83
2016-07-31T00:02:42.366Z,9.83
2016-07-31T00:02:51.070Z,9.82
2016-07-31T00:02:59.761Z,9.86
2016-07-31T00:03:08.484Z,9.78
2016-07-31T00:03:17.184Z,9.75
2016-07-31T00:03:25.899Z,9.78
2016-07-31T00:03:34.629Z,9.83
2016-07-31T00:03:43.296Z,9.86
2016-07-31T00:03:51.998Z,9.79
2016-07-31T00:04:00.728Z,9.76
2016-07-31T00:04:09.438Z,9.76
2016-07-31T00:04:18.133Z,9.76
2016-07-31T00:04:26.839Z,9.83
2016-07-31T00:04:35.568Z,9.86
2016-07-31T00:04:44.319Z,9.73
2016-07-31T00:04:52.999Z,9.83
2016-07-31T00:05:01.688Z,9.73
2016-07-31T00:05:10.425Z,9.71
2016-07-31T00:05:19.129Z,9.78
2016-07-31T00:05:27.862Z,9.71
2016-07-31T00:05:36.587Z,9.7
2016-07-31T00:05:45.334Z,9.75
2016-07-31T00:05:54.081Z,9.79
2016-07-31T00:06:02.815Z,9.79
2016-07-31T00:06:11.523Z,9.75
2016-07-31T00:06:20.276Z,9.75
2016-07-31T00:06:28.987Z,9.71
2016-07-31T00:06:37.697Z,9.79
2016-07-31T00:06:46.405Z,9.78
2016-07-31T00:06:55.124Z,9.81
2016-07-31T00:07:03.823Z,9.76
2016-07-31T00:07:12.534Z,9.81
2016-07-31T00:07:21.267Z,9.76
2016-07-31T00:07:29.979Z,9.82
2016-07-31T00:07:38.637Z,9.75
2016-07-31T00:07:47.348Z,9.79
2016-07-31T00:07:56.068Z,9.73
2016-07-31T00:08:04.776Z,9.75
2016-07-31T00:08:13.437Z,9.79
2016-07-31T00:08:22.179Z,9.78
2016-07-31T00:08:30.874Z,9.75
2016-07-31T00:08:39.585Z,9.86
2016-07-31T00:08:48.281Z,9.83
2016-07-31T00:08:56.990Z,9.89
2016-07-31T00:09:05.689Z,9.83
2016-07-31T00:09:14.426Z,9.76
2016-07-31T00:09:23.170Z,9.73
2016-07-31T00:09:31.894Z,9.76
2016-07-31T00:09:40.609Z,9.82
2016-07-31T00:09:49.321Z,9.81
2016-07-31T00:09:58.046Z,9.86
2016-07-31T00:10:06.760Z,9.75
2016-07-31T00:10:15.474Z,9.81
2016-07-31T00:10:24.189Z,9.71
2016-07-31T00:10:32.929Z,9.73
2016-07-31T00:10:41.644Z,9.76
2016-07-31T00:10:50.343Z,9.76
2016-07-31T00:10:59.044Z,9.7
2016-07-31T00:11:07.783Z,9.73
2016-07-31T00:11:16.500Z,9.76
2016-07-31T00:11:25.187Z,9.79
2016-07-31T00:11:33.951Z,9.79
2016-07-31T00:11:42.646Z,9.89
2016-07-31T00:11:51.328Z,9.83
2016-07-31T00:12:00.044Z,9.83
2016-07-31T00:12:08.768Z,9.83
2016-07-31T00:12:17.466Z,9.86
2016-07-31T00:12:26.158Z,9.93
2016-07-31T00:12:34.851Z,9.89
2016-07-31T00:12:43.533Z,9.88
2016-07-31T00:13:00.951Z,9.82
2016-07-31T00:13:09.650Z,9.94
2016-07-31T00:13:18.394Z,9.82
2016-07-31T00:13:27.080Z,9.88
2016-07-31T00:13:35.817Z,9.93
2016-07-31T00:13:44.542Z,9.89
2016-07-31T00:13:53.249Z,9.88
2016-07-31T00:14:01.924Z,9.86
2016-07-31T00:14:10.651Z,9.86
2016-07-31T00:14:19.384Z,9.91
2016-07-31T00:14:28.084Z,9.85
2016-07-31T00:14:36.796Z,9.86
2016-07-31T00:14:45.538Z,9.85
2016-07-31T00:14:54.243Z,9.79
2016-07-31T00:15:02.924Z,9.83
2016-07-31T00:15:11.641Z,9.81
2016-07-31T00:15:20.356Z,9.85
2016-07-31T00:15:29.037Z,9.89
2016-07-31T00:15:37.752Z,9.83
2016-07-31T00:15:46.470Z,9.75
2016-07-31T00:15:55.170Z,9.83
2016-07-31T00:16:03.884Z,9.83
2016-07-31T00:16:12.599Z,9.78
2016-07-31T00:16:21.319Z,9.83
2016-07-31T00:16:30.040Z,9.81
2016-07-31T00:16:38.756Z,9.73
2016-07-31T00:16:47.466Z,9.86
2016-07-31T00:16:56.195Z,9.73
2016-07-31T00:17:04.910Z,9.71
2016-07-31T00:17:13.610Z,9.71
2016-07-31T00:17:22.313Z,9.73
2016-07-31T00:17:31.063Z,9.78
2016-07-31T00:17:39.785Z,9.71
2016-07-31T00:17:48.477Z,9.76
2016-07-31T00:17:57.178Z,9.75
2016-07-31T00:18:05.867Z,9.75
2016-07-31T00:18:14.611Z,9.78
2016-07-31T00:18:23.347Z,9.78
2016-07-31T00:18:32.036Z,9.75
2016-07-31T00:18:40.752Z,9.81
2016-07-31T00:18:49.444Z,9.83
2016-07-31T00:18:58.126Z,9.78
2016-07-31T00:19:06.832Z,9.81
2016-07-31T00:19:15.529Z,9.79
2016-07-31T00:19:24.224Z,9.81
2016-07-31T00:19:32.887Z,9.81
2016-07-31T00:19:41.608Z,9.81
2016-07-31T00:19:59.095Z,9.75
2016-07-31T00:20:07.804Z,9.76
2016-07-31T00:20:16.541Z,9.83
2016-07-31T00:20:25.247Z,9.79
2016-07-31T00:20:33.925Z,9.76
2016-07-31T00:20:42.663Z,9.78
2016-07-31T00:20:51.408Z,9.78
2016-07-31T00:21:00.112Z,9.89
2016-07-31T00:21:08.850Z,9.76
2016-07-31T00:21:17.533Z,9.76
2016-07-31T00:21:26.266Z,9.75
2016-07-31T00:21:34.961Z,9.71
2016-07-31T00:21:43.691Z,9.76
2016-07-31T00:21:52.414Z,9.76
2016-07-31T00:22:01.115Z,9.75
2016-07-31T00:22:09.818Z,9.76
2016-07-31T00:22:18.560Z,9.75
2016-07-31T00:22:27.242Z,9.71
2016-07-31T00:22:35.973Z,9.73
2016-07-31T00:22:44.671Z,9.78
2016-07-31T00:22:53.392Z,9.78
2016-07-31T00:23:02.114Z,9.79
2016-07-31T00:23:10.834Z,9.79
2016-07-31T00:23:19.511Z,9.81
2016-07-31T00:23:28.194Z,9.71
2016-07-31T00:23:36.941Z,9.71
2016-07-31T00:23:45.669Z,9.75
2016-07-31T00:23:55.092Z,9.75
2016-07-31T00:24:03.750Z,9.76
2016-07-31T00:24:12.424Z,9.82
2016-07-31T00:24:21.133Z,9.81
2016-07-31T00:24:29.829Z,9.75
2016-07-31T00:24:38.556Z,9.76
2016-07-31T00:24:47.280Z,9.78
2016-07-31T00:24:55.992Z,9.78
2016-07-31T00:25:04.717Z,9.79
2016-07-31T00:25:13.426Z,9.79
2016-07-31T00:25:22.130Z,9.79
2016-07-31T00:25:30.843Z,9.78
2016-07-31T00:25:39.529Z,9.75
2016-07-31T00:25:48.230Z,9.81
2016-07-31T00:25:56.943Z,9.75
2016-07-31T00:26:06.389Z,9.75
2016-07-31T00:26:15.149Z,9.75
2016-07-31T00:26:23.836Z,9.79
2016-07-31T00:26:32.568Z,9.81
2016-07-31T00:26:41.313Z,9.76
2016-07-31T00:26:49.993Z,9.83
2016-07-31T00:26:58.710Z,9.83
2016-07-31T00:27:07.442Z,9.83
2016-07-31T00:27:16.184Z,9.85
2016-07-31T00:27:24.899Z,9.96
2016-07-31T00:27:33.588Z,9.94
2016-07-31T00:27:42.349Z,9.83
2016-07-31T00:28:08.416Z,9.86
2016-07-31T00:28:17.141Z,9.91
2016-07-31T00:28:25.831Z,9.88
2016-07-31T00:28:34.561Z,9.89
2016-07-31T00:28:43.266Z,9.88
2016-07-31T00:28:52.011Z,9.85
2016-07-31T00:29:00.715Z,9.93
2016-07-31T00:29:09.440Z,9.91
2016-07-31T00:29:18.140Z,9.97
2016-07-31T00:29:26.826Z,9.93
2016-07-31T00:29:35.560Z,9.93
2016-07-31T00:29:44.286Z,9.93
2016-07-31T00:29:52.967Z,9.96
2016-07-31T00:30:01.658Z,9.89
2016-07-31T00:30:10.391Z,9.89
2016-07-31T00:30:19.137Z,9.91
2016-07-31T00:30:27.877Z,9.93
2016-07-31T00:30:36.625Z,9.89
2016-07-31T00:30:45.335Z,9.96
2016-07-31T00:30:54.062Z,9.93
2016-07-31T00:31:02.792Z,9.89
2016-07-31T00:31:11.508Z,9.91
2016-07-31T00:31:20.199Z,9.93
2016-07-31T00:31:28.922Z,9.93
2016-07-31T00:31:37.619Z,9.91
2016-07-31T00:31:46.345Z,9.93
2016-07-31T00:31:55.047Z,9.93
2016-07-31T00:32:04.481Z,9.86
2016-07-31T00:32:13.205Z,9.91
2016-07-31T00:32:21.936Z,9.96
2016-07-31T00:32:30.656Z,9.93
2016-07-31T00:32:39.387Z,9.96
2016-07-31T00:32:48.106Z,9.89
2016-07-31T00:32:56.828Z,9.89
2016-07-31T00:33:05.555Z,9.89
2016-07-31T00:33:14.277Z,9.96
2016-07-31T00:33:22.972Z,9.91
2016-07-31T00:33:31.709Z,9.94
2016-07-31T00:33:40.401Z,9.91
2016-07-31T00:33:49.095Z,9.91
2016-07-31T00:33:57.798Z,9.91
2016-07-31T00:34:06.475Z,9.96
2016-07-31T00:34:15.178Z,9.89
2016-07-31T00:34:23.904Z,9.91
2016-07-31T00:34:32.604Z,9.85
2016-07-31T00:34:41.339Z,9.91
2016-07-31T00:34:50.722Z,9.91
2016-07-31T00:34:59.398Z,9.91
2016-07-31T00:35:08.099Z,9.89
2016-07-31T00:35:16.864Z,9.93
2016-07-31T00:35:25.583Z,9.89
2016-07-31T00:35:34.302Z,9.86
2016-07-31T00:35:43.018Z,9.81
2016-07-31T00:35:51.725Z,9.83
2016-07-31T00:36:00.462Z,9.86
2016-07-31T00:36:09.195Z,9.83
2016-07-31T00:36:17.914Z,9.83
2016-07-31T00:36:26.614Z,9.89
2016-07-31T00:36:35.349Z,9.78
2016-07-31T00:36:44.046Z,9.75
2016-07-31T00:36:52.739Z,9.73
2016-07-31T00:37:02.118Z,9.75
2016-07-31T00:37:10.829Z,9.78
2016-07-31T00:37:19.538Z,9.71
2016-07-31T00:37:28.281Z,9.73
2016-07-31T00:37:37.005Z,9.78
2016-07-31T00:37:45.728Z,9.7
2016-07-31T00:37:54.424Z,9.76
2016-07-31T00:38:03.106Z,9.68
2016-07-31T00:38:11.837Z,9.68
2016-07-31T00:38:20.580Z,9.71
2016-07-31T00:38:29.276Z,9.7
2016-07-31T00:38:37.987Z,9.7
2016-07-31T00:38:46.704Z,9.64
2016-07-31T00:38:55.410Z,9.71
2016-07-31T00:39:04.135Z,9.68
2016-07-31T00:39:12.857Z,9.7
2016-07-31T00:39:21.602Z,9.67
2016-07-31T00:39:30.306Z,9.67
2016-07-31T00:39:39.071Z,9.68
2016-07-31T00:39:47.738Z,9.71
2016-07-31T00:39:56.461Z,9.71
2016-07-31T00:40:05.160Z,9.71
2016-07-31T00:40:13.883Z,9.7
2016-07-31T00:40:22.622Z,9.76
2016-07-31T00:40:31.339Z,9.79
2016-07-31T00:40:40.051Z,9.82
2016-07-31T00:40:48.753Z,9.81
2016-07-31T00:40:57.451Z,9.82
2016-07-31T00:41:06.181Z,9.85
2016-07-31T00:41:14.895Z,9.83
2016-07-31T00:41:23.631Z,9.96
2016-07-31T00:41:32.335Z,9.94
2016-07-31T00:41:41.044Z,9.94
2016-07-31T00:41:49.745Z,9.97
2016-07-31T00:41:58.470Z,9.91
2016-07-31T00:42:07.191Z,9.93
2016-07-31T00:42:15.918Z,10
2016-07-31T00:42:24.684Z,9.96
2016-07-31T00:42:33.409Z,9.97
2016-07-31T00:42:42.120Z,9.96
2016-07-31T00:42:50.869Z,9.96
2016-07-31T00:43:08.264Z,10
2016-07-31T00:43:16.957Z,9.97
2016-07-31T00:43:25.667Z,9.91
2016-07-31T00:43:34.385Z,9.96
2016-07-31T00:43:43.155Z,9.91
2016-07-31T00:43:51.851Z,10
2016-07-31T00:44:00.553Z,9.97
2016-07-31T00:44:09.264Z,9.99
2016-07-31T00:44:18.010Z,10.04
2016-07-31T00:44:26.709Z,10.03
2016-07-31T00:44:35.454Z,9.97
2016-07-31T00:44:44.187Z,10.09
2016-07-31T00:44:52.861Z,10.07
2016-07-31T00:45:01.580Z,10.07
2016-07-31T00:45:10.297Z,10.01
2016-07-31T00:45:18.985Z,10.03
2016-07-31T00:45:27.706Z,10.03
2016-07-31T00:45:37.102Z,10.06
2016-07-31T00:45:45.832Z,10.04
2016-07-31T00:45:54.534Z,10.07
2016-07-31T00:46:03.220Z,10.04
2016-07-31T00:46:11.969Z,9.97
2016-07-31T00:46:20.667Z,10.01
2016-07-31T00:46:29.351Z,9.99
2016-07-31T00:46:38.082Z,10.03
2016-07-31T00:46:46.796Z,10.04
2016-07-31T00:46:55.529Z,10.06
2016-07-31T00:47:04.220Z,10.07
2016-07-31T00:47:12.909Z,10.04
2016-07-31T00:47:21.619Z,10.06
2016-07-31T00:47:30.363Z,9.96
2016-07-31T00:47:39.769Z,10.06
2016-07-31T00:47:48.484Z,10.07
2016-07-31T00:47:57.182Z,10.01
2016-07-31T00:48:05.878Z,10.03
2016-07-31T00:48:14.590Z,9.96
2016-07-31T00:48:23.336Z,10.06
2016-07-31T00:48:32.049Z,10.1
2016-07-31T00:48:40.765Z,10.03
2016-07-31T00:48:49.470Z,9.97
2016-07-31T00:48:58.159Z,10.03
2016-07-31T00:49:06.883Z,10.04
2016-07-31T00:49:15.603Z,9.97
2016-07-31T00:49:24.304Z,10.12
2016-07-31T00:49:33.019Z,10
2016-07-31T00:49:41.724Z,10.01
2016-07-31T00:49:51.119Z,10.09
2016-07-31T00:49:59.779Z,10.01
2016-07-31T00:50:08.501Z,10.06
2016-07-31T00:50:17.187Z,10.01
2016-07-31T00:50:25.869Z,9.97
2016-07-31T00:50:34.599Z,10.09
2016-07-31T00:50:43.294Z,10.01
2016-07-31T00:50:52.011Z,9.99
2016-07-31T00:51:01.384Z,10.01
2016-07-31T00:51:10.048Z,10.06
2016-07-31T00:51:18.764Z,10.03
2016-07-31T00:51:27.453Z,10.01
2016-07-31T00:51:36.147Z,10.04
2016-07-31T00:51:44.860Z,9.96
2016-07-31T00:51:53.625Z,10.03
2016-07-31T00:52:02.306Z,10.04
2016-07-31T00:52:11.023Z,10.01
2016-07-31T00:52:19.743Z,10.01
2016-07-31T00:52:28.461Z,10
2016-07-31T00:52:37.196Z,9.99
2016-07-31T00:52:45.857Z,10.06
2016-07-31T00:52:54.583Z,10.01
2016-07-31T00:53:03.285Z,10.01
2016-07-31T00:53:12.032Z,9.99
2016-07-31T00:53:20.728Z,10
2016-07-31T00:53:29.413Z,10.1
2016-07-31T00:53:38.155Z,10.01
2016-07-31T00:53:46.891Z,10.01
2016-07-31T00:53:55.616Z,10.06
2016-07-31T00:54:04.317Z,10.01
2016-07-31T00:54:13.022Z,10.09
2016-07-31T00:54:21.733Z,10.12
2016-07-31T00:54:30.445Z,10.04
2016-07-31T00:54:39.188Z,10.03
2016-07-31T00:54:47.907Z,10.09
2016-07-31T00:54:56.605Z,10.03
2016-07-31T00:55:05.302Z,10.04
2016-07-31T00:55:14.019Z,10.07
2016-07-31T00:55:22.712Z,10.04
2016-07-31T00:55:31.395Z,9.99
2016-07-31T00:55:40.120Z,10.04
2016-07-31T00:55:48.856Z,9.96
2016-07-31T00:55:57.573Z,10.04
2016-07-31T00:56:06.274Z,9.88
2016-07-31T00:56:14.980Z,10
2016-07-31T00:56:24.316Z,9.88
2016-07-31T00:56:33.056Z,10
2016-07-31T00:56:41.758Z,9.93
2016-07-31T00:56:50.503Z,9.89
2016-07-31T00:56:59.230Z,9.82
2016-07-31T00:57:07.935Z,9.94
2016-07-31T00:57:16.694Z,9.86
2016-07-31T00:57:25.432Z,9.91
2016-07-31T00:57:34.846Z,9.94
2016-07-31T00:57:43.555Z,9.93
2016-07-31T00:57:52.300Z,9.86
2016-07-31T00:58:09.673Z,9.94
2016-07-31T00:58:18.377Z,9.96
2016-07-31T00:58:27.119Z,9.93
2016-07-31T00:58:35.838Z,9.94
2016-07-31T00:58:44.584Z,9.96
2016-07-31T00:58:53.333Z,9.88
2016-07-31T00:59:02.058Z,9.91
2016-07-31T00:59:10.739Z,9.93
2016-07-31T00:59:19.473Z,9.85
2016-07-31T00:59:28.177Z,9.89
2016-07-31T00:59:36.886Z,9.96
2016-07-31T00:59:45.596Z,9.89
2016-07-31T00:59:54.292Z,9.93
2016-07-31T01:00:02.995Z,9.88
2016-07-31T01:00:11.684Z,9.88
2016-07-31T01:00:20.430Z,9.93
2016-07-31T01:00:29.169Z,9.97
2016-07-31T01:00:37.887Z,10.03
2016-07-31T01:00:46.610Z,9.99
2016-07-31T01:00:55.270Z,9.96
2016-07-31T01:01:03.978Z,10.04
2016-07-31T01:01:12.669Z,10.07
2016-07-31T01:01:21.400Z,10.07
2016-07-31T01:01:30.151Z,9.96
2016-07-31T01:01:38.871Z,10.07
2016-07-31T01:01:47.567Z,9.97
2016-07-31T01:01:56.313Z,10.01
2016-07-31T01:02:05.047Z,10.01
2016-07-31T01:02:13.783Z,9.97
2016-07-31T01:02:22.505Z,9.89
2016-07-31T01:02:31.182Z,10
2016-07-31T01:02:39.859Z,10.01
2016-07-31T01:02:48.600Z,10.04
2016-07-31T01:02:57.292Z,10.01
2016-07-31T01:03:06.032Z,10.07
2016-07-31T01:03:14.746Z,10.03
2016-07-31T01:03:23.407Z,10.01
2016-07-31T01:03:32.136Z,9.97
2016-07-31T01:03:40.829Z,9.97
2016-07-31T01:03:49.538Z,10.01
2016-07-31T01:03:58.273Z,10.01
2016-07-31T01:04:07.006Z,10.07
2016-07-31T01:04:15.705Z,10.07
2016-07-31T01:04:24.429Z,10.06
2016-07-31T01:04:33.153Z,10.06
2016-07-31T01:04:41.817Z,10.04
2016-07-31T01:04:50.516Z,10.04
2016-07-31T01:04:59.252Z,10.01
2016-07-31T01:05:07.977Z,10.09
2016-07-31T01:05:16.673Z,9.94
2016-07-31T01:05:25.364Z,9.97
2016-07-31T01:05:34.126Z,9.96
2016-07-31T01:05:42.826Z,9.96
2016-07-31T01:05:51.484Z,10.06
2016-07-31T01:06:00.216Z,9.88
2016-07-31T01:06:08.931Z,9.97
2016-07-31T01:06:17.653Z,9.93
2016-07-31T01:06:26.402Z,9.91
2016-07-31T01:06:35.140Z,9.93
2016-07-31T01:06:43.810Z,9.94
2016-07-31T01:06:52.532Z,9.85
2016-07-31T01:07:01.284Z,9.83
2016-07-31T01:07:09.963Z,9.89
2016-07-31T01:07:19.362Z,9.88
2016-07-31T01:07:28.091Z,9.96
2016-07-31T01:07:36.831Z,9.91
2016-07-31T01:07:45.538Z,9.97
2016-07-31T01:07:54.255Z,9.93
2016-07-31T01:08:02.944Z,9.89
2016-07-31T01:08:11.688Z,9.97
2016-07-31T01:08:20.404Z,9.96
2016-07-31T01:08:29.116Z,9.93
2016-07-31T01:08:37.807Z,9.85
2016-07-31T01:08:46.526Z,9.85
2016-07-31T01:08:55.253Z,9.83
2016-07-31T01:09:03.996Z,9.86
2016-07-31T01:09:12.739Z,9.81
2016-07-31T01:09:21.481Z,9.76
2016-07-31T01:09:30.197Z,9.76
2016-07-31T01:09:38.918Z,9.75
2016-07-31T01:09:47.619Z,9.75
2016-07-31T01:09:56.333Z,9.76
2016-07-31T01:10:05.037Z,9.81
2016-07-31T01:10:13.747Z,9.81
2016-07-31T01:10:22.454Z,9.71
2016-07-31T01:10:31.188Z,9.75
2016-07-31T01:10:40.577Z,9.71
2016-07-31T01:10:49.297Z,9.68
2016-07-31T01:10:58.040Z,9.68
2016-07-31T01:11:06.756Z,9.7
2016-07-31T01:11:15.486Z,9.68
2016-07-31T01:11:24.244Z,9.67
2016-07-31T01:11:32.975Z,9.64
2016-07-31T01:11:41.674Z,9.71
2016-07-31T01:11:50.414Z,9.68
2016-07-31T01:11:59.144Z,9.63
2016-07-31T01:12:07.874Z,9.67
2016-07-31T01:12:16.558Z,9.63
2016-07-31T01:12:25.277Z,9.61
2016-07-31T01:12:33.962Z,9.61
2016-07-31T01:12:42.646Z,9.66
2016-07-31T01:12:51.365Z,9.6
2016-07-31T01:13:08.774Z,9.63
2016-07-31T01:13:17.486Z,9.7
2016-07-31T01:13:26.206Z,9.63
2016-07-31T01:13:34.925Z,9.66
2016-07-31T01:13:43.626Z,9.67
2016-07-31T01:13:52.331Z,9.66
2016-07-31T01:14:01.696Z,9.75
2016-07-31T01:14:10.398Z,9.7
2016-07-31T01:14:19.138Z,9.68
2016-07-31T01:14:27.830Z,9.68
2016-07-31T01:14:37.214Z,9.76
2016-07-31T01:14:45.900Z,9.7
2016-07-31T01:14:54.560Z,9.67
2016-07-31T01:15:03.275Z,9.68
2016-07-31T01:15:11.963Z,9.7
2016-07-31T01:15:20.657Z,9.81
2016-07-31T01:15:29.386Z,9.79
2016-07-31T01:15:38.102Z,9.79
2016-07-31T01:15:46.798Z,9.78
2016-07-31T01:15:55.514Z,9.79
2016-07-31T01:16:04.877Z,9.68
2016-07-31T01:16:13.601Z,9.75
2016-07-31T01:16:22.319Z,9.76
2016-07-31T01:16:31.016Z,9.73
2016-07-31T01:16:40.396Z,9.71
2016-07-31T01:16:49.097Z,9.79
2016-07-31T01:16:57.785Z,9.73
2016-07-31T01:17:06.529Z,9.75
2016-07-31T01:17:15.210Z,9.75
2016-07-31T01:17:24.603Z,9.76
2016-07-31T01:17:33.308Z,9.82
2016-07-31T01:17:42.002Z,9.85
2016-07-31T01:17:50.705Z,9.7
2016-07-31T01:18:00.136Z,9.78
2016-07-31T01:18:08.840Z,9.79
2016-07-31T01:18:17.572Z,9.78
2016-07-31T01:18:26.282Z,9.75
2016-07-31T01:18:34.993Z,9.76
2016-07-31T01:18:43.739Z,9.81
2016-07-31T01:18:52.467Z,9.89
2016-07-31T01:19:01.176Z,9.83
2016-07-31T01:19:09.874Z,9.81
2016-07-31T01:19:18.556Z,9.82
2016-07-31T01:19:27.259Z,9.83
2016-07-31T01:19:35.950Z,9.89
2016-07-31T01:19:44.635Z,9.76
2016-07-31T01:19:53.356Z,9.81
2016-07-31T01:20:02.091Z,9.83
2016-07-31T01:20:10.801Z,9.89
2016-07-31T01:20:19.524Z,9.88
2016-07-31T01:20:28.215Z,9.82
2016-07-31T01:20:37.601Z,9.85
2016-07-31T01:20:46.338Z,9.86
2016-07-31T01:20:55.048Z,9.93
2016-07-31T01:21:03.781Z,9.83
2016-07-31T01:21:12.491Z,9.91
2016-07-31T01:21:21.200Z,9.91
2016-07-31T01:21:30.620Z,9.96
2016-07-31T01:21:39.345Z,9.88
2016-07-31T01:21:48.076Z,9.93
2016-07-31T01:21:56.801Z,9.93
2016-07-31T01:22:05.503Z,9.88
2016-07-31T01:22:14.208Z,9.91
2016-07-31T01:22:22.965Z,9.88
2016-07-31T01:22:31.674Z,9.89
2016-07-31T01:22:40.388Z,9.91
2016-07-31T01:22:49.114Z,9.97
2016-07-31T01:22:57.848Z,9.97
2016-07-31T01:23:06.536Z,9.96
2016-07-31T01:23:15.263Z,9.86
2016-07-31T01:23:24.021Z,9.91
2016-07-31T01:23:32.773Z,9.93
2016-07-31T01:23:41.473Z,9.91
2016-07-31T01:23:50.200Z,10
2016-07-31T01:23:58.925Z,10
2016-07-31T01:24:07.660Z,9.94
2016-07-31T01:24:16.349Z,9.94
2016-07-31T01:24:25.055Z,9.93
2016-07-31T01:24:33.751Z,9.86
2016-07-31T01:24:42.428Z,9.99
2016-07-31T01:24:51.163Z,9.91
2016-07-31T01:24:59.873Z,9.83
2016-07-31T01:25:09.304Z,9.89
2016-07-31T01:25:18.069Z,9.83
2016-07-31T01:25:26.816Z,9.91
2016-07-31T01:25:35.550Z,9.93
2016-07-31T01:25:44.296Z,9.86
2016-07-31T01:25:53.013Z,9.93
2016-07-31T01:26:01.785Z,9.93
2016-07-31T01:26:10.532Z,9.97
2016-07-31T01:26:19.233Z,9.97
2016-07-31T01:26:28.623Z,9.88
2016-07-31T01:26:37.320Z,10.03
2016-07-31T01:26:46.083Z,9.91
2016-07-31T01:26:54.757Z,9.91
2016-07-31T01:27:03.489Z,9.99
2016-07-31T01:27:12.226Z,9.96
2016-07-31T01:27:20.903Z,9.97
2016-07-31T01:27:29.601Z,10.07
2016-07-31T01:27:38.291Z,9.86
2016-07-31T01:27:46.971Z,9.93
2016-07-31T01:28:13.026Z,9.94
2016-07-31T01:28:21.708Z,10.01
2016-07-31T01:28:30.396Z,10
2016-07-31T01:28:39.100Z,9.94
2016-07-31T01:28:47.817Z,10
2016-07-31T01:28:56.530Z,10.03
2016-07-31T01:29:05.260Z,10.06
2016-07-31T01:29:13.996Z,10.03
2016-07-31T01:29:22.705Z,10.06
2016-07-31T01:29:31.431Z,10.06
2016-07-31T01:29:40.136Z,10.06
2016-07-31T01:29:48.834Z,10.07
2016-07-31T01:29:57.556Z,10
2016-07-31T01:30:06.253Z,10.06
2016-07-31T01:30:14.983Z,10.01
2016-07-31T01:30:23.661Z,10.07
2016-07-31T01:30:32.345Z,10.04
2016-07-31T01:30:41.046Z,10.04
2016-07-31T01:30:49.737Z,10.01
2016-07-31T01:30:58.494Z,10.03
2016-07-31T01:31:07.202Z,10.04
2016-07-31T01:31:15.910Z,10.09
2016-07-31T01:31:24.653Z,10.06
2016-07-31T01:31:33.349Z,10.03
2016-07-31T01:31:42.044Z,10.06
2016-07-31T01:31:50.747Z,10.06
2016-07-31T01:31:59.436Z,10.04
2016-07-31T01:32:08.145Z,10.03
2016-07-31T01:32:16.859Z,10.03
2016-07-31T01:32:25.587Z,9.96
2016-07-31T01:32:34.319Z,10.03
2016-07-31T01:32:43.063Z,10
2016-07-31T01:32:51.787Z,9.97
2016-07-31T01:33:00.508Z,9.93
2016-07-31T01:33:09.183Z,9.89
2016-07-31T01:33:17.860Z,9.86
2016-07-31T01:33:26.560Z,9.94
2016-07-31T01:33:35.246Z,9.97
2016-07-31T01:33:43.965Z,9.97
2016-07-31T01:33:52.700Z,9.97
2016-07-31T01:34:01.437Z,9.89
2016-07-31T01:34:10.145Z,9.83
2016-07-31T01:34:18.870Z,9.86
2016-07-31T01:34:27.635Z,9.91
2016-07-31T01:34:36.357Z,9.96
2016-07-31T01:34:45.071Z,9.91
2016-07-31T01:34:53.776Z,9.91
2016-07-31T01:35:02.542Z,9.89
2016-07-31T01:35:11.284Z,9.94
2016-07-31T01:35:19.977Z,9.96
2016-07-31T01:35:28.677Z,9.91
2016-07-31T01:35:37.410Z,9.94
2016-07-31T01:35:46.111Z,9.94
2016-07-31T01:35:54.813Z,9.93
2016-07-31T01:36:03.510Z,9.97
2016-07-31T01:36:12.240Z,9.97
2016-07-31T01:36:20.989Z,10
2016-07-31T01:36:29.702Z,9.96
2016-07-31T01:36:38.406Z,9.89
2016-07-31T01:36:47.138Z,9.89
2016-07-31T01:36:55.866Z,9.89
2016-07-31T01:37:04.577Z,9.88
2016-07-31T01:37:13.312Z,9.88
2016-07-31T01:37:21.990Z,9.93
2016-07-31T01:37:30.695Z,9.89
2016-07-31T01:37:39.396Z,9.83
2016-07-31T01:37:48.122Z,9.91
2016-07-31T01:37:56.835Z,9.94
2016-07-31T01:38:05.519Z,10.04
2016-07-31T01:38:14.197Z,10
2016-07-31T01:38:22.909Z,10.1
2016-07-31T01:38:31.664Z,10.09
2016-07-31T01:38:40.407Z,10.12
2016-07-31T01:38:49.133Z,10.12
2016-07-31T01:38:57.877Z,10.14
2016-07-31T01:39:06.549Z,10.18
2016-07-31T01:39:15.275Z,10.15
2016-07-31T01:39:24.015Z,10.14
2016-07-31T01:39:32.740Z,10.14
2016-07-31T01:39:41.482Z,10.06
2016-07-31T01:39:50.174Z,10.15
2016-07-31T01:39:58.856Z,10.12
2016-07-31T01:40:07.518Z,10.14
2016-07-31T01:40:16.232Z,10.07
2016-07-31T01:40:24.954Z,10.09
2016-07-31T01:40:34.372Z,10.03
2016-07-31T01:40:43.092Z,10.12
2016-07-31T01:40:51.839Z,10.1
2016-07-31T01:41:00.555Z,9.99
2016-07-31T01:41:09.248Z,10
2016-07-31T01:41:18.687Z,10.03
2016-07-31T01:41:27.393Z,10.03
2016-07-31T01:41:36.089Z,10.03
2016-07-31T01:41:44.791Z,10.01
2016-07-31T01:41:53.478Z,10.04
2016-07-31T01:42:02.230Z,9.96
2016-07-31T01:42:10.932Z,10.03
2016-07-31T01:42:20.328Z,10.01
2016-07-31T01:42:29.015Z,9.93
2016-07-31T01:42:37.761Z,9.93
2016-07-31T01:42:46.522Z,9.88
2016-07-31T01:42:55.183Z,9.93
2016-07-31T01:43:12.723Z,9.91
2016-07-31T01:43:21.445Z,9.86
2016-07-31T01:43:30.826Z,9.93
2016-07-31T01:43:39.548Z,9.94
2016-07-31T01:43:48.308Z,9.96
2016-07-31T01:43:57.063Z,9.85
2016-07-31T01:44:06.499Z,9.89
2016-07-31T01:44:15.203Z,9.94
2016-07-31T01:44:23.909Z,9.94
2016-07-31T01:44:32.620Z,9.88
2016-07-31T01:44:41.360Z,9.88
2016-07-31T01:44:50.039Z,9.97
2016-07-31T01:44:58.791Z,9.86
2016-07-31T01:45:07.490Z,9.94
2016-07-31T01:45:16.212Z,9.89
2016-07-31T01:45:24.879Z,9.97
2016-07-31T01:45:33.623Z,9.91
2016-07-31T01:45:42.346Z,9.94
2016-07-31T01:45:51.076Z,9.91
2016-07-31T01:45:59.781Z,9.91
2016-07-31T01:46:08.490Z,9.96
2016-07-31T01:46:17.173Z,9.89
2016-07-31T01:46:25.867Z,9.93
2016-07-31T01:46:34.546Z,9.94
2016-07-31T01:46:43.299Z,9.91
2016-07-31T01:46:52.041Z,9.91
2016-07-31T01:47:00.770Z,9.88
2016-07-31T01:47:09.521Z,9.89
2016-07-31T01:47:18.224Z,9.86
2016-07-31T01:47:26.965Z,9.86
2016-07-31T01:47:35.660Z,9.88
2016-07-31T01:47:44.381Z,9.83
2016-07-31T01:47:53.049Z,9.86
2016-07-31T01:48:01.742Z,9.85
2016-07-31T01:48:10.474Z,9.91
2016-07-31T01:48:19.195Z,9.94
2016-07-31T01:48:27.923Z,9.88
2016-07-31T01:48:36.635Z,9.85
2016-07-31T01:48:45.379Z,9.93
2016-07-31T01:48:54.071Z,9.91
2016-07-31T01:49:02.759Z,9.83
2016-07-31T01:49:11.420Z,9.91
2016-07-31T01:49:20.121Z,9.81
2016-07-31T01:49:28.822Z,9.89
2016-07-31T01:49:37.531Z,9.83
2016-07-31T01:49:46.248Z,9.83
2016-07-31T01:49:54.978Z,9.78
2016-07-31T01:50:03.657Z,9.83
2016-07-31T01:50:12.362Z,9.89
2016-07-31T01:50:21.030Z,9.89
2016-07-31T01:50:29.731Z,9.88
2016-07-31T01:50:38.463Z,9.85
2016-07-31T01:50:47.205Z,9.86
2016-07-31T01:50:55.908Z,9.71
2016-07-31T01:51:05.313Z,9.86
2016-07-31T01:51:14.014Z,9.88
2016-07-31T01:51:22.750Z,9.88
2016-07-31T01:51:31.462Z,9.85
2016-07-31T01:51:40.190Z,9.79
2016-07-31T01:51:48.910Z,9.86
2016-07-31T01:51:57.662Z,9.83
2016-07-31T01:52:06.363Z,9.86
2016-07-31T01:52:15.082Z,9.89
2016-07-31T01:52:23.799Z,9.89
2016-07-31T01:52:32.487Z,9.96
2016-07-31T01:52:41.205Z,9.85
2016-07-31T01:52:49.914Z,9.93
2016-07-31T01:52:58.589Z,9.93
2016-07-31T01:53:07.333Z,9.96
2016-07-31T01:53:16.017Z,9.89
2016-07-31T01:53:24.737Z,9.89
2016-07-31T01:53:33.457Z,9.89
2016-07-31T01:53:42.189Z,9.83
2016-07-31T01:53:50.887Z,9.89
2016-07-31T01:53:59.614Z,9.89
2016-07-31T01:54:08.309Z,9.97
2016-07-31T01:54:17.040Z,9.91
2016-07-31T01:54:25.738Z,9.94
2016-07-31T01:54:34.477Z,9.97
2016-07-31T01:54:43.229Z,9.96
2016-07-31T01:54:51.933Z,9.91
2016-07-31T01:55:00.663Z,9.97
2016-07-31T01:55:09.374Z,9.93
2016-07-31T01:55:18.075Z,9.91
2016-07-31T01:55:26.776Z,9.91
2016-07-31T01:55:35.443Z,9.91
2016-07-31T01:55:44.178Z,9.91
2016-07-31T01:55:52.844Z,9.94
2016-07-31T01:56:01.536Z,9.86
2016-07-31T01:56:10.240Z,9.91
2016-07-31T01:56:19.671Z,9.91
2016-07-31T01:56:28.407Z,9.88
2016-07-31T01:56:37.117Z,9.93
2016-07-31T01:56:45.841Z,9.93
2016-07-31T01:56:54.531Z,9.86
2016-07-31T01:57:03.295Z,9.94
2016-07-31T01:57:11.988Z,9.97
2016-07-31T01:57:20.696Z,9.88